Time;durP1;ratioP1;P1;durP2;ratioP2;P2;SDS_P1;SDS_P2;PMS_P1;PMS_P2;Temp;Humidity;BMP_temperature;BMP_pressure;BME280_temperature;BME280_humidity;BME280_pressure;Samples;Min_cycle;Max_cycle;Signal;HPM_P1;HPM_P2
2021/07/10 00:00:08;;;;;;;13.65;6.82;;;22.90;92.70;;;;;;5051737;28;20028;-84
2021/07/10 00:02:34;;;;;;;10.35;6.85;;;22.80;92.20;;;;;;5069278;28;20032;-84
2021/07/10 00:04:59;;;;;;;7.57;5.07;;;22.90;92.00;;;;;;5051169;28;20032;-85
2021/07/10 00:07:25;;;;;;;8.35;4.97;;;22.90;91.00;;;;;;5051837;28;20405;-84
2021/07/10 00:09:52;;;;;;;5.60;4.22;;;22.90;90.10;;;;;;5051473;28;20111;-84
2021/07/10 00:12:17;;;;;;;7.15;4.10;;;22.80;89.10;;;;;;5051520;28;20040;-83
2021/07/10 00:14:43;;;;;;;7.95;4.82;;;22.80;88.50;;;;;;5069219;28;20036;-84
2021/07/10 00:17:09;;;;;;;6.70;4.25;;;22.70;88.80;;;;;;5050890;28;20542;-84
2021/07/10 00:19:34;;;;;;;10.25;4.07;;;22.70;88.80;;;;;;5069231;28;20587;-85
2021/07/10 00:22:00;;;;;;;5.22;3.28;;;22.70;87.00;;;;;;5069045;28;20067;-85
2021/07/10 00:24:30;;;;;;;4.43;3.05;;;22.60;86.20;;;;;;5050979;28;20098;-85
2021/07/10 00:26:57;;;;;;;4.05;2.50;;;22.60;85.40;;;;;;5051260;28;20028;-84
2021/07/10 00:29:23;;;;;;;5.70;2.00;;;22.50;84.30;;;;;;5050959;28;20054;-83
2021/07/10 00:31:48;;;;;;;3.67;1.40;;;22.50;81.00;;;;;;5068360;28;20511;-84
2021/07/10 00:34:14;;;;;;;3.60;0.80;;;22.40;79.80;;;;;;5068238;28;20031;-84
2021/07/10 00:36:40;;;;;;;2.13;1.00;;;22.40;76.30;;;;;;5068171;28;20053;-83
2021/07/10 00:39:06;;;;;;;1.02;0.70;;;22.40;76.90;;;;;;5051227;28;20028;-84
2021/07/10 00:41:31;;;;;;;1.85;1.08;;;22.40;74.20;;;;;;5050333;28;20032;-82
2021/07/10 00:43:57;;;;;;;2.88;0.60;;;22.30;74.00;;;;;;5068758;28;20085;-83
2021/07/10 00:46:23;;;;;;;2.22;0.52;;;22.30;72.40;;;;;;5068400;28;20039;-81
2021/07/10 00:48:49;;;;;;;0.95;0.47;;;22.30;72.10;;;;;;5068386;28;20459;-82
2021/07/10 00:51:16;;;;;;;1.30;0.40;;;22.30;69.60;;;;;;5050385;28;20340;-82
2021/07/10 00:53:42;;;;;;;2.70;0.40;;;22.40;67.50;;;;;;5050257;28;20021;-81
2021/07/10 00:56:08;;;;;;;7.68;0.40;;;22.40;66.00;;;;;;5050393;28;20578;-82
2021/07/10 00:58:35;;;;;;;1.15;0.38;;;22.40;66.20;;;;;;5050407;28;20021;-82
2021/07/10 01:01:02;;;;;;;3.83;0.30;;;22.40;63.80;;;;;;5068473;28;20032;-82
2021/07/10 01:03:31;;;;;;;2.30;0.40;;;22.50;63.50;;;;;;5050667;28;20024;-82
2021/07/10 01:05:58;;;;;;;2.08;0.30;;;22.60;62.50;;;;;;5068137;28;20029;-82
2021/07/10 01:08:24;;;;;;;1.23;0.40;;;22.60;62.10;;;;;;5050126;28;20066;-81
2021/07/10 01:10:50;;;;;;;4.05;0.40;;;22.50;61.30;;;;;;5067934;28;20150;-80
2021/07/10 01:13:17;;;;;;;0.90;0.40;;;22.50;61.00;;;;;;5049931;28;20035;-80
2021/07/10 01:15:43;;;;;;;2.97;0.40;;;22.60;59.90;;;;;;5049927;28;20056;-81
2021/07/10 01:18:09;;;;;;;3.25;0.55;;;22.60;59.60;;;;;;5048387;28;20626;-83
2021/07/10 01:20:55;;;;;;;1.10;0.40;;;22.60;59.60;;;;;;5066927;28;20028;-82
2021/07/10 01:23:21;;;;;;;2.95;0.40;;;22.70;60.00;;;;;;5049650;28;20036;-84
2021/07/10 01:25:47;;;;;;;2.83;0.43;;;22.70;59.90;;;;;;5067494;28;20107;-82
2021/07/10 01:28:14;;;;;;;1.67;0.40;;;22.70;59.60;;;;;;5049249;28;20192;-83
2021/07/10 01:30:41;;;;;;;2.13;0.50;;;22.80;59.80;;;;;;5049846;28;20039;-83
2021/07/10 01:33:08;;;;;;;1.15;0.38;;;22.80;60.00;;;;;;5049364;28;20093;-83
2021/07/10 01:35:34;;;;;;;0.60;0.40;;;22.90;60.30;;;;;;5049471;28;20056;-80
2021/07/10 01:38:03;;;;;;;1.10;0.43;;;22.80;60.10;;;;;;5049873;28;20024;-81
2021/07/10 01:40:28;;;;;;;1.15;0.32;;;22.90;59.70;;;;;;5049770;28;20416;-80
2021/07/10 01:42:55;;;;;;;5.22;0.45;;;22.90;59.50;;;;;;5055619;28;20031;-82
2021/07/10 01:45:21;;;;;;;2.30;0.50;;;22.90;59.30;;;;;;5055666;28;20032;-83
2021/07/10 01:47:51;;;;;;;1.00;0.70;;;22.90;59.20;;;;;;5073795;28;20029;-84
2021/07/10 01:50:18;;;;;;;6.50;0.70;;;23.00;58.50;;;;;;5055510;28;20020;-84
2021/07/10 01:52:44;;;;;;;2.97;0.77;;;23.10;58.10;;;;;;5055994;28;20090;-84
2021/07/10 01:55:11;;;;;;;5.07;0.80;;;23.10;58.20;;;;;;5055519;28;20128;-82
2021/07/10 01:57:38;;;;;;;4.78;0.98;;;23.20;57.70;;;;;;5073931;28;20063;-84
2021/07/10 02:00:16;;;;;;;1.65;0.60;;;23.20;56.30;;;;;;5055887;28;20021;-82
2021/07/10 02:02:42;;;;;;;1.88;0.65;;;23.30;55.50;;;;;;5073416;28;20115;-82
2021/07/10 02:05:09;;;;;;;4.20;0.60;;;23.40;55.10;;;;;;5055596;28;20111;-82
2021/07/10 02:07:35;;;;;;;3.25;0.60;;;23.40;54.20;;;;;;5074046;28;20243;-82
2021/07/10 02:10:00;;;;;;;6.72;0.75;;;23.50;53.40;;;;;;5055674;28;20477;-83
2021/07/10 02:12:26;;;;;;;3.42;1.38;;;23.50;52.80;;;;;;5073581;28;20033;-83
2021/07/10 02:14:52;;;;;;;1.75;0.60;;;23.60;52.30;;;;;;5055881;28;20034;-82
2021/07/10 02:17:17;;;;;;;2.10;0.65;;;23.70;51.70;;;;;;5054840;28;20091;-83
2021/07/10 02:19:43;;;;;;;3.50;0.90;;;23.70;51.90;;;;;;5056289;28;20101;-82
2021/07/10 02:22:09;;;;;;;4.22;0.70;;;23.60;52.70;;;;;;5073837;28;20270;-82
2021/07/10 02:24:36;;;;;;;1.45;0.50;;;23.70;52.20;;;;;;5055217;28;20547;-83
2021/07/10 02:27:01;;;;;;;1.25;0.60;;;23.70;51.40;;;;;;5055677;28;20024;-82
2021/07/10 02:29:27;;;;;;;3.10;1.08;;;23.60;52.10;;;;;;5073194;28;20393;-83
2021/07/10 02:31:53;;;;;;;5.05;0.80;;;23.60;52.70;;;;;;5055210;28;20550;-82
2021/07/10 02:34:18;;;;;;;1.40;0.60;;;23.50;53.00;;;;;;5055746;28;20024;-82
2021/07/10 02:36:45;;;;;;;5.78;0.55;;;23.50;52.30;;;;;;5073050;28;20056;-81
2021/07/10 02:39:11;;;;;;;6.95;0.60;;;23.50;51.90;;;;;;5055466;28;20034;-84
2021/07/10 02:41:36;;;;;;;0.95;0.52;;;23.50;50.80;;;;;;5055653;28;20028;-83
2021/07/10 02:44:05;;;;;;;1.55;0.50;;;23.50;51.70;;;;;;5073658;28;20040;-82
2021/07/10 02:46:31;;;;;;;1.30;0.60;;;23.40;50.80;;;;;;5072968;28;20107;-83
2021/07/10 02:48:58;;;;;;;3.38;0.60;;;23.40;51.20;;;;;;5073631;28;20099;-84
2021/07/10 02:51:25;;;;;;;9.68;0.75;;;23.30;52.30;;;;;;5055716;28;20032;-84
2021/07/10 02:53:53;;;;;;;1.23;0.60;;;23.20;53.40;;;;;;5051554;28;20020;-83
2021/07/10 02:56:23;;;;;;;4.03;0.43;;;23.10;54.60;;;;;;5069650;28;20237;-84
2021/07/10 02:58:49;;;;;;;0.95;0.60;;;23.00;55.40;;;;;;5069443;28;20028;-83
2021/07/10 03:01:15;;;;;;;1.33;0.60;;;22.90;55.90;;;;;;5051379;28;20028;-83
2021/07/10 03:03:40;;;;;;;1.80;0.90;;;22.80;56.50;;;;;;5069857;28;20028;-83
2021/07/10 03:06:06;;;;;;;1.52;0.80;;;22.80;57.10;;;;;;5069848;28;20013;-83
2021/07/10 03:08:32;;;;;;;2.15;0.60;;;22.80;57.70;;;;;;5052019;28;20024;-82
2021/07/10 03:10:57;;;;;;;2.55;0.63;;;22.70;58.50;;;;;;5050900;28;20577;-83
2021/07/10 03:13:23;;;;;;;1.42;0.70;;;22.60;59.20;;;;;;5069824;28;20056;-84
2021/07/10 03:15:49;;;;;;;1.52;0.68;;;22.60;59.50;;;;;;5068997;28;20072;-83
2021/07/10 03:18:15;;;;;;;3.58;0.70;;;22.50;60.10;;;;;;5051754;28;20554;-83
2021/07/10 03:20:41;;;;;;;0.90;0.60;;;22.50;59.90;;;;;;5051757;28;20032;-84
2021/07/10 03:23:07;;;;;;;4.10;0.90;;;22.50;60.00;;;;;;5069559;28;20025;-83
2021/07/10 03:25:33;;;;;;;1.63;0.70;;;22.50;59.90;;;;;;5051589;28;20028;-83
2021/07/10 03:27:58;;;;;;;1.77;0.60;;;22.50;60.30;;;;;;5051587;28;20064;-81
2021/07/10 03:30:25;;;;;;;1.73;0.70;;;22.40;60.40;;;;;;5051463;28;20507;-82
2021/07/10 03:32:51;;;;;;;8.45;1.05;;;22.30;61.00;;;;;;5069549;28;20027;-83
2021/07/10 03:35:18;;;;;;;1.42;0.88;;;22.40;62.10;;;;;;5068814;28;20558;-82
2021/07/10 03:37:46;;;;;;;4.10;0.93;;;22.30;62.90;;;;;;5069434;28;20044;-83
2021/07/10 03:40:13;;;;;;;4.13;0.90;;;22.20;63.80;;;;;;5069207;28;20082;-80
2021/07/10 03:42:40;;;;;;;2.88;0.90;;;22.20;64.10;;;;;;5051491;28;20501;-81
2021/07/10 03:45:08;;;;;;;3.55;0.73;;;22.10;66.70;;;;;;5069451;28;20040;-81
2021/07/10 03:47:34;;;;;;;3.13;0.70;;;21.80;69.50;;;;;;5069166;28;20530;-80
2021/07/10 03:50:00;;;;;;;1.55;0.60;;;21.70;70.70;;;;;;5050978;28;20055;-80
2021/07/10 03:52:26;;;;;;;3.85;0.80;;;21.60;71.40;;;;;;5069091;28;20024;-80
2021/07/10 03:54:51;;;;;;;2.38;0.60;;;21.60;71.60;;;;;;5051090;28;20106;-81
2021/07/10 03:57:17;;;;;;;6.72;0.90;;;21.50;72.90;;;;;;5051331;28;20068;-80
2021/07/10 03:59:42;;;;;;;4.88;0.85;;;21.40;74.20;;;;;;5051321;28;20025;-80
2021/07/10 04:02:08;;;;;;;1.08;0.60;;;21.30;74.20;;;;;;5050456;28;20086;-81
2021/07/10 04:04:34;;;;;;;6.72;0.70;;;21.30;73.90;;;;;;5051046;28;20428;-81
2021/07/10 04:07:00;;;;;;;9.45;1.08;;;21.50;74.10;;;;;;5050862;28;20047;-82
2021/07/10 04:09:25;;;;;;;3.88;0.98;;;21.60;74.40;;;;;;5050949;28;20493;-80
2021/07/10 04:11:51;;;;;;;10.35;0.90;;;21.90;74.60;;;;;;5051270;28;20048;-83
2021/07/10 04:14:17;;;;;;;5.55;0.88;;;22.10;73.90;;;;;;5068125;28;20401;-82
2021/07/10 04:16:43;;;;;;;4.50;0.85;;;22.30;73.00;;;;;;5050048;28;20119;-83
2021/07/10 04:19:08;;;;;;;4.00;1.08;;;22.60;73.80;;;;;;5068877;28;20033;-83
2021/07/10 04:21:34;;;;;;;1.88;0.88;;;22.60;74.10;;;;;;5050132;28;20035;-83
2021/07/10 04:24:00;;;;;;;2.38;0.73;;;22.60;74.20;;;;;;5051013;28;20074;-83
2021/07/10 04:26:25;;;;;;;4.30;1.05;;;22.60;74.80;;;;;;5050059;28;20551;-83
2021/07/10 04:28:51;;;;;;;7.28;1.00;;;22.70;75.20;;;;;;5050105;28;20127;-82
2021/07/10 04:31:17;;;;;;;2.83;1.33;;;22.80;75.20;;;;;;5049484;28;20039;-83
2021/07/10 04:33:43;;;;;;;2.22;1.00;;;22.80;74.80;;;;;;5050165;28;20050;-82
2021/07/10 04:36:08;;;;;;;4.65;1.10;;;22.80;74.90;;;;;;5067784;28;20056;-83
2021/07/10 04:38:37;;;;;;;2.95;1.15;;;23.00;74.50;;;;;;5050404;28;20029;-84
2021/07/10 04:41:04;;;;;;;3.35;1.38;;;23.10;74.20;;;;;;5068034;28;20021;-84
2021/07/10 04:43:31;;;;;;;3.88;1.30;;;23.20;73.70;;;;;;5049916;28;20081;-84
2021/07/10 04:45:57;;;;;;;3.78;1.50;;;23.30;73.40;;;;;;5067764;28;20485;-82
2021/07/10 04:48:22;;;;;;;3.42;1.20;;;23.30;73.40;;;;;;5049736;28;20029;-82
2021/07/10 04:50:48;;;;;;;4.10;1.20;;;23.40;72.20;;;;;;5049735;28;20584;-83
2021/07/10 04:53:14;;;;;;;2.67;1.20;;;23.40;72.80;;;;;;5050049;28;20020;-83
2021/07/10 04:55:39;;;;;;;4.20;1.15;;;23.30;72.30;;;;;;5049679;28;20119;-82
2021/07/10 04:58:05;;;;;;;4.07;1.20;;;23.40;72.50;;;;;;5049995;28;20032;-84
2021/07/10 05:00:30;;;;;;;4.97;1.33;;;23.50;73.30;;;;;;5048556;28;20032;-84
2021/07/10 05:02:56;;;;;;;3.78;0.88;;;23.50;73.00;;;;;;5048907;28;20473;-83
2021/07/10 05:05:22;;;;;;;5.95;1.23;;;23.60;72.00;;;;;;5066776;28;20028;-84
2021/07/10 05:07:47;;;;;;;5.95;1.17;;;23.70;70.80;;;;;;5049816;28;20555;-83
2021/07/10 05:10:14;;;;;;;1.63;0.77;;;23.70;70.80;;;;;;5067551;28;20055;-82
2021/07/10 05:12:40;;;;;;;3.20;0.80;;;23.70;70.70;;;;;;5067667;28;20082;-83
2021/07/10 05:15:06;;;;;;;4.15;0.80;;;23.80;70.20;;;;;;5049380;28;20021;-83
2021/07/10 05:17:31;;;;;;;9.23;0.95;;;23.90;70.50;;;;;;5048693;28;20044;-82
2021/07/10 05:19:57;;;;;;;11.88;1.75;;;23.90;70.30;;;;;;5048949;28;20020;-82
2021/07/10 05:22:23;;;;;;;7.95;1.00;;;24.10;69.50;;;;;;5067176;28;20070;-83
2021/07/10 05:24:48;;;;;;;6.05;0.80;;;24.30;68.60;;;;;;5049836;28;20021;-83
2021/07/10 05:27:14;;;;;;;4.80;0.95;;;24.50;66.80;;;;;;5049647;28;20048;-83
2021/07/10 05:29:40;;;;;;;5.72;0.90;;;24.50;66.10;;;;;;5049019;28;20039;-81
2021/07/10 05:32:06;;;;;;;3.63;0.80;;;24.50;66.50;;;;;;5048843;28;20155;-83
2021/07/10 05:34:32;;;;;;;3.42;0.80;;;24.60;65.60;;;;;;5066813;28;20036;-83
2021/07/10 05:36:58;;;;;;;2.47;0.52;;;24.60;65.30;;;;;;5048356;28;20131;-83
2021/07/10 05:39:23;;;;;;;4.35;0.95;;;24.80;64.70;;;;;;5049000;28;20111;-81
2021/07/10 05:41:49;;;;;;;3.50;0.57;;;25.10;62.60;;;;;;5049638;28;20127;-80
2021/07/10 05:44:14;;;;;;;1.45;0.70;;;25.30;61.70;;;;;;5067426;28;20047;-81
2021/07/10 05:46:40;;;;;;;1.13;0.63;;;25.50;60.60;;;;;;5067065;28;20070;-81
2021/07/10 05:49:06;;;;;;;2.58;0.60;;;25.70;60.30;;;;;;5067356;28;20849;-80
2021/07/10 05:51:31;;;;;;;3.85;0.70;;;26.00;58.90;;;;;;5049551;28;20028;-84
2021/07/10 05:53:57;;;;;;;3.03;0.60;;;26.30;58.60;;;;;;5048772;28;20024;-83
2021/07/10 05:56:23;;;;;;;3.45;0.70;;;26.70;57.50;;;;;;5049411;28;20123;-82
2021/07/10 05:58:49;;;;;;;5.70;0.70;;;27.20;56.30;;;;;;5049092;28;20036;-84
2021/07/10 06:01:14;;;;;;;1.90;0.70;;;27.80;54.20;;;;;;5049604;28;20497;-82
2021/07/10 06:03:40;;;;;;;4.88;0.60;;;28.70;52.00;;;;;;5049032;28;20060;-82
2021/07/10 06:06:06;;;;;;;3.28;0.68;;;29.30;50.00;;;;;;5049446;28;20024;-81
2021/07/10 06:08:31;;;;;;;4.57;0.68;;;29.90;48.80;;;;;;5049016;28;20060;-83
2021/07/10 06:10:57;;;;;;;0.93;0.60;;;31.00;46.30;;;;;;5049045;28;20037;-84
2021/07/10 06:13:23;;;;;;;0.90;0.52;;;32.10;43.50;;;;;;5048499;28;20031;-81
2021/07/10 06:15:49;;;;;;;4.50;0.90;;;32.80;41.40;;;;;;5048525;28;20017;-82
2021/07/10 06:18:14;;;;;;;2.97;0.88;;;33.40;39.40;;;;;;5049252;28;20086;-80
2021/07/10 06:20:40;;;;;;;7.40;0.82;;;34.00;39.30;;;;;;5048831;28;20058;-84
2021/07/10 06:23:07;;;;;;;4.40;0.70;;;34.70;37.80;;;;;;5048937;28;20040;-84
2021/07/10 06:25:35;;;;;;;2.10;0.75;;;35.40;36.80;;;;;;5048889;28;20508;-83
2021/07/10 06:28:00;;;;;;;1.30;0.70;;;35.60;35.40;;;;;;5050445;28;20078;-83
2021/07/10 06:30:26;;;;;;;4.28;0.70;;;35.50;35.40;;;;;;5052680;28;20025;-84
2021/07/10 06:32:52;;;;;;;3.15;0.80;;;35.30;35.20;;;;;;5052735;28;20477;-84
2021/07/10 06:35:18;;;;;;;4.60;0.68;;;35.40;35.60;;;;;;5052628;28;20095;-84
2021/07/10 06:37:43;;;;;;;8.40;1.27;;;35.70;34.90;;;;;;5052495;28;20389;-83
2021/07/10 06:40:12;;;;;;;4.43;0.90;;;35.70;34.60;;;;;;5069859;28;20099;-82
2021/07/10 06:42:38;;;;;;;9.32;0.98;;;35.20;35.10;;;;;;5070079;28;20031;-82
2021/07/10 06:45:10;;;;;;;1.38;0.60;;;34.10;36.50;;;;;;5051998;28;20021;-81
2021/07/10 06:47:36;;;;;;;2.53;1.13;;;32.90;38.80;;;;;;5070213;28;20033;-82
2021/07/10 06:50:05;;;;;;;2.08;0.80;;;31.90;40.80;;;;;;5052098;28;20028;-82
2021/07/10 06:52:30;;;;;;;4.43;0.60;;;31.20;42.40;;;;;;5052258;28;20039;-83
2021/07/10 06:54:56;;;;;;;3.22;0.80;;;30.50;43.10;;;;;;5051665;28;20024;-83
2021/07/10 06:57:22;;;;;;;2.63;0.65;;;30.10;44.70;;;;;;5051850;28;20032;-81
2021/07/10 06:59:47;;;;;;;2.35;1.00;;;29.70;45.80;;;;;;5069485;28;20027;-82
2021/07/10 07:02:13;;;;;;;1.50;0.70;;;29.60;47.30;;;;;;5052321;28;20642;-81
2021/07/10 07:04:39;;;;;;;4.93;1.00;;;29.60;46.80;;;;;;5051762;28;20478;-82
2021/07/10 07:07:05;;;;;;;2.95;0.90;;;29.60;47.30;;;;;;5069997;28;20024;-82
2021/07/10 07:09:31;;;;;;;4.20;0.90;;;29.50;47.50;;;;;;5069558;28;20657;-80
2021/07/10 07:11:57;;;;;;;4.63;1.20;;;29.30;47.60;;;;;;5051348;28;20028;-81
2021/07/10 07:14:23;;;;;;;6.30;1.10;;;29.20;48.10;;;;;;5069628;28;20359;-81
2021/07/10 07:16:48;;;;;;;2.65;1.10;;;29.70;47.70;;;;;;5051423;28;20320;-84
2021/07/10 07:19:14;;;;;;;2.08;0.90;;;30.70;45.70;;;;;;5051700;28;20134;-82
2021/07/10 07:21:40;;;;;;;3.20;0.95;;;31.90;43.80;;;;;;5051468;28;20043;-81
2021/07/10 07:24:06;;;;;;;11.70;2.40;;;33.00;41.90;;;;;;5069505;28;20082;-82
2021/07/10 07:26:32;;;;;;;2.17;1.00;;;33.90;39.80;;;;;;5052154;28;20030;-84
2021/07/10 07:28:58;;;;;;;4.65;1.15;;;34.50;39.20;;;;;;5050862;28;20033;-84
2021/07/10 07:31:24;;;;;;;4.97;1.52;;;34.90;37.60;;;;;;5051369;28;20409;-83
2021/07/10 07:33:50;;;;;;;2.58;1.40;;;35.20;37.00;;;;;;5051713;28;20517;-82
2021/07/10 07:36:15;;;;;;;9.02;1.30;;;35.50;36.70;;;;;;5050549;28;20560;-81
2021/07/10 07:38:41;;;;;;;11.68;1.77;;;35.90;36.20;;;;;;5050779;28;20032;-81
2021/07/10 07:41:07;;;;;;;4.20;1.20;;;36.10;35.60;;;;;;5050577;28;20038;-82
2021/07/10 07:43:33;;;;;;;4.25;1.65;;;36.10;34.50;;;;;;5068669;28;20028;-82
2021/07/10 07:45:59;;;;;;;3.85;2.03;;;35.80;34.80;;;;;;5050489;28;20025;-82
2021/07/10 07:48:25;;;;;;;2.95;1.30;;;35.80;35.40;;;;;;5050706;28;20035;-82
2021/07/10 07:50:51;;;;;;;2.78;1.45;;;36.30;35.30;;;;;;5050691;28;20424;-81
2021/07/10 07:53:18;;;;;;;5.90;1.60;;;36.90;34.70;;;;;;5051056;28;20348;-83
2021/07/10 07:55:44;;;;;;;1.90;1.48;;;36.90;34.40;;;;;;5068786;28;20029;-82
2021/07/10 07:58:10;;;;;;;3.60;1.60;;;36.90;34.40;;;;;;5050551;28;20089;-82
2021/07/10 08:00:36;;;;;;;2.95;1.55;;;36.90;34.70;;;;;;5050673;28;20783;-83
2021/07/10 08:03:02;;;;;;;3.33;1.60;;;37.10;34.30;;;;;;5068100;28;20028;-83
2021/07/10 08:05:28;;;;;;;5.10;2.03;;;37.30;34.20;;;;;;5049938;28;20103;-82
2021/07/10 08:07:54;;;;;;;5.80;1.60;;;37.30;33.80;;;;;;5050656;28;20569;-83
2021/07/10 08:10:20;;;;;;;2.03;1.48;;;37.50;34.20;;;;;;5050091;28;20056;-82
2021/07/10 08:12:49;;;;;;;3.45;1.83;;;37.60;34.00;;;;;;5050253;28;20063;-83
2021/07/10 08:15:17;;;;;;;5.05;2.17;;;38.10;32.30;;;;;;5050422;28;20126;-81
2021/07/10 08:17:44;;;;;;;8.00;1.92;;;37.70;33.10;;;;;;5067920;28;20152;-83
2021/07/10 08:20:11;;;;;;;5.65;1.50;;;37.80;33.60;;;;;;5068240;28;20104;-82
2021/07/10 08:22:37;;;;;;;3.58;2.08;;;37.70;33.60;;;;;;5049620;28;20033;-84
2021/07/10 08:25:05;;;;;;;2.75;1.95;;;37.90;33.70;;;;;;5067926;28;20024;-83
2021/07/10 08:27:31;;;;;;;7.32;2.03;;;38.00;34.00;;;;;;5049554;28;20021;-83
2021/07/10 08:29:56;;;;;;;4.80;2.10;;;37.80;34.50;;;;;;5067967;28;20028;-84
2021/07/10 08:32:22;;;;;;;3.92;1.50;;;38.20;32.70;;;;;;5049742;28;20101;-84
2021/07/10 08:34:48;;;;;;;4.55;1.88;;;38.20;33.20;;;;;;5049750;28;20224;-84
2021/07/10 08:37:14;;;;;;;2.63;1.48;;;37.80;32.90;;;;;;5049673;28;20456;-84
2021/07/10 08:39:40;;;;;;;2.70;1.50;;;37.70;33.80;;;;;;5067664;28;20663;-83
2021/07/10 08:42:06;;;;;;;2.33;1.80;;;38.10;33.20;;;;;;5066642;28;20055;-84
2021/07/10 08:44:34;;;;;;;3.70;2.17;;;38.20;33.50;;;;;;5066835;28;20028;-83
2021/07/10 08:47:00;;;;;;;15.32;2.40;;;38.10;32.90;;;;;;5049071;28;20068;-83
2021/07/10 08:49:26;;;;;;;3.28;1.70;;;38.20;32.40;;;;;;5049329;28;20328;-83
2021/07/10 08:51:53;;;;;;;31.98;3.72;;;38.10;31.90;;;;;;5048742;28;20035;-83
2021/07/10 08:54:18;;;;;;;5.63;1.95;;;37.80;32.80;;;;;;5067178;28;20024;-84
2021/07/10 08:56:45;;;;;;;4.25;1.88;;;37.70;33.50;;;;;;5067195;28;20044;-83
2021/07/10 08:59:11;;;;;;;5.78;2.00;;;37.50;34.80;;;;;;5067039;28;20063;-80
2021/07/10 09:01:37;;;;;;;9.43;2.15;;;37.80;33.80;;;;;;5049614;28;20074;-86
2021/07/10 09:04:04;;;;;;;9.27;2.55;;;38.00;33.40;;;;;;5049267;28;20428;-83
2021/07/10 09:06:29;;;;;;;6.85;2.00;;;38.10;33.40;;;;;;5049040;28;20378;-84
2021/07/10 09:08:56;;;;;;;3.03;2.10;;;38.40;33.20;;;;;;5049417;28;20035;-84
2021/07/10 09:11:22;;;;;;;4.32;2.47;;;38.50;32.50;;;;;;5049101;28;20029;-82
2021/07/10 09:13:55;;;;;;;8.63;2.03;;;38.70;31.30;;;;;;5066278;28;20504;-81
2021/07/10 09:19:10;;;;;;;6.68;2.30;;;38.30;32.70;;;;;;5067278;28;20166;-83
2021/07/10 09:21:50;;;;;;;9.27;1.90;;;38.30;32.20;;;;;;5048654;28;20036;-82
2021/07/10 09:24:28;;;;;;;2.63;1.70;;;38.50;32.70;;;;;;5066603;28;20017;-82
2021/07/10 09:26:56;;;;;;;8.15;2.50;;;38.60;32.10;;;;;;5048556;28;20033;-84
2021/07/10 09:29:24;;;;;;;3.90;1.63;;;39.00;32.30;;;;;;5066525;28;20024;-82
2021/07/10 09:32:00;;;;;;;4.03;2.25;;;39.00;32.10;;;;;;5066811;28;20209;-84
2021/07/10 09:34:43;;;;;;;8.45;2.05;;;39.50;30.00;;;;;;5066891;28;20030;-83
2021/07/10 09:37:12;;;;;;;3.75;2.35;;;39.00;31.00;;;;;;5048368;28;20071;-83
2021/07/10 09:40:03;;;;;;;3.78;2.15;;;39.00;31.40;;;;;;5048552;28;20442;-83
2021/07/10 09:42:37;;;;;;;5.28;2.05;;;38.90;31.10;;;;;;5066522;28;20024;-83
2021/07/10 09:45:08;;;;;;;7.97;2.00;;;38.90;31.00;;;;;;5066246;28;20484;-83
2021/07/10 09:47:36;;;;;;;6.57;1.85;;;39.00;30.20;;;;;;5048444;28;20348;-83
2021/07/10 09:50:06;;;;;;;6.50;2.00;;;39.00;30.10;;;;;;5066484;28;20029;-86
2021/07/10 09:52:35;;;;;;;2.58;1.77;;;39.00;31.70;;;;;;5048642;28;20355;-83
2021/07/10 09:55:08;;;;;;;5.57;1.90;;;38.80;31.10;;;;;;5048684;28;20394;-82
2021/07/10 09:57:36;;;;;;;2.10;1.80;;;39.20;30.80;;;;;;5066456;28;20032;-83
2021/07/10 10:00:09;;;;;;;6.18;1.80;;;39.30;30.60;;;;;;5048301;28;20036;-82
2021/07/10 10:02:46;;;;;;;5.05;2.28;;;39.60;30.40;;;;;;5067506;28;20119;-82
2021/07/10 10:05:14;;;;;;;2.53;1.42;;;39.40;30.30;;;;;;5070544;28;20602;-82
2021/07/10 10:07:50;;;;;;;8.23;2.30;;;39.10;30.60;;;;;;5052274;28;20236;-82
2021/07/10 10:10:23;;;;;;;2.65;1.40;;;38.50;30.70;;;;;;5052132;28;20114;-83
2021/07/10 10:13:18;;;;;;;7.70;1.95;;;38.10;31.50;;;;;;5069805;28;20059;-82
2021/07/10 10:15:49;;;;;;;1.90;1.30;;;37.60;32.00;;;;;;5068772;28;20047;-80
2021/07/10 10:18:22;;;;;;;4.60;1.60;;;37.00;32.10;;;;;;5070432;28;20036;-80
2021/07/10 10:20:50;;;;;;;2.90;1.85;;;36.50;32.70;;;;;;5069472;28;20481;-82
2021/07/10 10:23:17;;;;;;;4.43;1.73;;;36.30;32.60;;;;;;5052597;28;20806;-80
2021/07/10 10:25:44;;;;;;;2.90;1.42;;;36.10;32.70;;;;;;5069706;28;20029;-80
2021/07/10 10:28:18;;;;;;;3.92;1.75;;;35.90;32.90;;;;;;5051325;28;20024;-81
2021/07/10 10:30:46;;;;;;;3.38;1.70;;;35.70;32.80;;;;;;5052218;28;20040;-82
2021/07/10 10:33:12;;;;;;;5.90;1.70;;;35.50;34.20;;;;;;5051852;28;20082;-82
2021/07/10 10:35:38;;;;;;;3.17;1.63;;;35.30;34.40;;;;;;5051638;28;20048;-82
2021/07/10 10:38:04;;;;;;;3.38;1.60;;;34.90;34.40;;;;;;5051714;28;20489;-83
2021/07/10 10:40:32;;;;;;;2.42;1.50;;;34.70;34.90;;;;;;5069890;28;20021;-79
2021/07/10 10:43:01;;;;;;;2.25;1.40;;;34.40;34.80;;;;;;5051127;28;20041;-82
2021/07/10 10:45:39;;;;;;;1.80;1.20;;;34.30;35.30;;;;;;5069676;28;20025;-81
2021/07/10 10:48:05;;;;;;;7.40;1.73;;;34.20;35.50;;;;;;5069642;28;20390;-81
2021/07/10 10:50:39;;;;;;;1.92;1.33;;;34.20;35.00;;;;;;5052021;28;20024;-81
2021/07/10 10:53:19;;;;;;;8.70;2.53;;;34.10;35.00;;;;;;5051321;28;20029;-81
2021/07/10 10:55:45;;;;;;;3.88;1.55;;;34.00;35.90;;;;;;5069074;28;20043;-81
2021/07/10 10:58:29;;;;;;;2.33;1.38;;;33.80;35.20;;;;;;5051040;28;20615;-82
2021/07/10 11:01:09;;;;;;;2.72;1.15;;;33.70;35.80;;;;;;5051070;28;20404;-83
2021/07/10 11:03:40;;;;;;;9.57;1.75;;;33.60;36.10;;;;;;5051501;28;20031;-82
2021/07/10 11:06:06;;;;;;;4.82;1.35;;;33.50;35.50;;;;;;5068900;28;20025;-82
2021/07/10 11:08:35;;;;;;;8.05;1.65;;;33.40;34.70;;;;;;5051596;28;20447;-82
2021/07/10 11:11:00;;;;;;;2.40;1.08;;;33.40;35.90;;;;;;5068753;28;20029;-81
2021/07/10 11:13:30;;;;;;;2.28;1.25;;;33.40;35.10;;;;;;5050275;28;20378;-81
2021/07/10 11:16:16;;;;;;;2.35;1.35;;;33.50;35.00;;;;;;5050735;28;20051;-81
2021/07/10 11:18:58;;;;;;;3.72;1.10;;;33.60;34.00;;;;;;5051132;28;20052;-81
2021/07/10 11:21:37;;;;;;;3.38;1.00;;;33.60;33.60;;;;;;5068930;28;20493;-81
2021/07/10 11:24:26;;;;;;;1.30;1.10;;;33.60;32.20;;;;;;5069294;28;20103;-82
2021/07/10 11:26:55;;;;;;;3.95;1.00;;;33.50;32.60;;;;;;5044766;28;20036;-81
2021/07/10 11:29:25;;;;;;;2.95;1.02;;;33.50;33.50;;;;;;5050871;28;20033;-81
2021/07/10 11:31:53;;;;;;;2.90;0.93;;;33.60;32.60;;;;;;5051342;28;20036;-81
2021/07/10 11:34:35;;;;;;;4.63;1.02;;;33.50;33.30;;;;;;5068647;28;20029;-82
2021/07/10 11:37:17;;;;;;;3.40;0.80;;;33.60;33.80;;;;;;5050325;28;20059;-82
2021/07/10 11:40:02;;;;;;;2.13;1.17;;;33.70;32.80;;;;;;5068496;28;20056;-81
2021/07/10 11:42:28;;;;;;;1.25;0.70;;;33.70;31.90;;;;;;5049810;28;20446;-82
2021/07/10 11:44:54;;;;;;;1.55;0.77;;;33.50;31.60;;;;;;5050459;28;20147;-82
2021/07/10 11:47:40;;;;;;;2.47;1.02;;;33.40;31.80;;;;;;5050867;28;20111;-82
2021/07/10 11:50:09;;;;;;;2.35;0.95;;;33.40;32.60;;;;;;5068050;28;20024;-81
2021/07/10 11:52:35;;;;;;;0.95;0.63;;;33.40;32.40;;;;;;5068275;28;20073;-81
2021/07/10 11:55:05;;;;;;;1.33;0.73;;;33.50;31.10;;;;;;5049739;28;20028;-81
2021/07/10 11:57:36;;;;;;;1.92;0.88;;;33.60;31.30;;;;;;5050074;28;20111;-81
2021/07/10 12:00:09;;;;;;;2.92;0.98;;;33.70;31.40;;;;;;5068150;28;20021;-81
2021/07/10 12:02:34;;;;;;;3.05;0.73;;;33.80;31.80;;;;;;5050168;28;20078;-81
2021/07/10 12:05:07;;;;;;;1.27;0.70;;;33.90;31.00;;;;;;5067946;28;20028;-82
2021/07/10 12:07:41;;;;;;;0.80;0.60;;;33.90;30.60;;;;;;5068232;28;20043;-80
2021/07/10 12:10:17;;;;;;;1.55;0.60;;;33.80;30.50;;;;;;5067626;28;20063;-81
2021/07/10 12:13:01;;;;;;;1.17;0.60;;;33.80;31.80;;;;;;5068040;28;20024;-82
2021/07/10 12:15:51;;;;;;;2.30;0.73;;;33.80;30.20;;;;;;5049933;28;20036;-82
2021/07/10 12:18:18;;;;;;;1.17;0.60;;;33.50;30.00;;;;;;5043800;28;20048;-81
2021/07/10 12:20:53;;;;;;;1.58;0.80;;;33.30;31.00;;;;;;5049727;28;20035;-80
2021/07/10 12:23:23;;;;;;;2.45;0.63;;;33.40;31.00;;;;;;5050076;28;20043;-82
2021/07/10 12:25:55;;;;;;;2.08;0.70;;;33.40;31.10;;;;;;5048743;28;20033;-81
2021/07/10 12:28:29;;;;;;;1.27;0.68;;;33.60;30.80;;;;;;5049515;28;20036;-82
2021/07/10 12:30:56;;;;;;;1.48;0.50;;;33.70;29.60;;;;;;5048838;28;20540;-82
2021/07/10 12:33:34;;;;;;;3.33;0.60;;;33.70;30.10;;;;;;5067839;28;20059;-81
2021/07/10 12:36:02;;;;;;;2.80;0.50;;;33.70;30.10;;;;;;5049258;28;20052;-81
2021/07/10 12:38:28;;;;;;;0.82;0.50;;;33.70;30.10;;;;;;5049085;28;20032;-81
2021/07/10 12:40:53;;;;;;;0.65;0.40;;;33.80;31.00;;;;;;5066727;28;20053;-81
2021/07/10 12:43:25;;;;;;;0.80;0.55;;;33.80;30.10;;;;;;5067093;28;20095;-81
2021/07/10 12:45:58;;;;;;;0.77;0.40;;;33.90;30.00;;;;;;5049299;28;20025;-81
2021/07/10 12:48:24;;;;;;;1.55;0.40;;;33.90;30.00;;;;;;5049585;28;20032;-80
2021/07/10 12:50:50;;;;;;;0.85;0.43;;;33.80;29.30;;;;;;5067220;28;20036;-80